OOMSOMAL

Guest
Details From OOMS - SEEB INTL
To OMAL - AL AIN INTL
Flight Number -
Tags generated
Created
Modified
Stats Distance 153 nm / 283 km
Max Altitude 14,000 ft / 4,267 m
Waypoints 4
Social Downloads 0
Likes 0
Share VATSIM

Download

Looking for another format? Having issues loading an existing format? Contact us
Advertisement - Login to hide

Notes

Basic altitude profile: - Ascent Rate: 2500ft/min - Ascent Speed: 250kts - Cruise Altitude: 35000ft - Cruise Speed: 420kts - Descent Rate: 1500ft/min - Descent Speed: 250kts Options: - Use NATs: no - Use PACOTS: no - Use low airways: no - Use high airways: yes

Route

OOMS MIBSI P899 PAXIM OMAL

ID Type Via Altitude Latitude Longitude Leg Dist Tot Dist Heading (true) Name
O OOMS APT - 0 ft / 0 m 23.59554˚ 58.29378˚ - 0 nm - SEEB INTL
MIBSI FIX - 7,500 ft / 2,286 m 23.69417˚ 57.92306˚ 21 nm 21 nm 286° / 286° -
PAXIM FIX P899 (AWY-HI) 14,000 ft / 4,267 m 24.04583˚ 56.27528˚ 92 nm 114 nm 283° / 283° -
O OMAL APT - 0 ft / 0 m 24.26169˚ 55.60913˚ 38 nm 152 nm 290° / 289° AL AIN INTL

Altitude Profile

Advertisement - Login to hide

OOMS

Details ICAO OOMS (MCT)
Name SEEB INTL
Region Oman
Timezone Asia/Muscat (UTC+4.0)
Stats Elevation 48 ft / 15 m (AMSL)
Location 23.595536° 58.293781°
Runways 2
Magnetic Variation 1.460° E

METAR

OOMS 170950Z 08013KT 9999 FEW025 SCT100 21/17 Q1018 NOSIG

Decode

TAF

TAF OOMS 170500Z 1706/1812 06012KT 8000 SCT030 PROB30 TEMPO 1706/1710 3000 +TSRA FEW025CB BKN035 PROB30 TEMPO 1712/1718 4000 TSRA FEW025CB BKN035 BECMG 1718/1720 25005KT PROB30 TEMPO 1800/1806 4000 TSRA FEW025CB BKN035 BECMG 1806/1808 03014KT

Decode

Departure Runways

ID Width Length Bearing (true) Bearing (mag) Surface Threshold Offset Overrun Length
02 98 ft / 30 m 2,498 ft / 761 m 18.94° 17.48° Dirt 0 ft / 0 m 0 ft / 0 m
08 148 ft / 45 m 11,759 ft / 3,584 m 84.98° 83.52° Asphalt 1,375 ft / 419 m 200 ft / 61 m
20 98 ft / 30 m 2,498 ft / 761 m 198.94° 197.48° Dirt 0 ft / 0 m 0 ft / 0 m
26 148 ft / 45 m 11,759 ft / 3,584 m 264.99° 263.53° Asphalt 0 ft / 0 m 200 ft / 61 m

OMAL

Details ICAO OMAL (AAN)
Name AL AIN INTL
Region United Arab Emirates
Timezone Asia/Dubai (UTC+4.0)
Stats Elevation 869 ft / 265 m (AMSL)
Location 24.261690° 55.609131°
Runways 1
Magnetic Variation 1.845° E

METAR

OMAL 171000Z 29010KT 250V330 8000 -TSRA SCT035 FEW040CB 20/13 Q1018 WS ALL RWY TEMPO VRB20G30KT 2000

Decode

TAF

TAF AMD OMAL 170637Z 1706/1812 18012KT 8000 SCT030 PROB30 TEMPO 1707/1715 VRB25G38KT 1500 TSRA BLDU SCT040CB BECMG 1710/1712 36010KT PROB30 TEMPO 1801/1803 BKN012 BECMG 1807/1809 30010KT

Decode

Destination Runways

ID Width Length Bearing (true) Bearing (mag) Surface Threshold Offset Overrun Length
01 148 ft / 45 m 13,176 ft / 4,016 m 7.40° 5.55° Asphalt 0 ft / 0 m 1,312 ft / 400 m
19 148 ft / 45 m 13,176 ft / 4,016 m 187.40° 185.55° Asphalt 0 ft / 0 m 1,080 ft / 329 m

Popular Alternatives